رشيد, مصر

08:47 PM EET on سبتهبر 02, 2014 (GMT +0200)
Alexandria International | Change Station
CLOSE
Current Station
Airport
Location: Alexandria,
Elevation: 23 ft
Nearby Weather Stations

Elev 23 ft 31.18 °N, 29.95 °E | Updated 47 minutes ago

Clear
صافية
81 °F
Feels Like 85 °F
N
5
ريح متغير ريح from شمال

هذا اليوم
High -- | Low -- °F
--% Chance of Precip.
Yesterday
High -- | Low -- °F
Precip. -- في
5:34 AM 6:21 PM
الربع الاول, 54% visible
الضغط 29.83 في
وضوح الرؤية -9999.0 أميال
سحابات
مؤشر الحرارة 85 °F
نقطة الندى 72 °F
الرطوبة 74%
Rainfall 0.00 في
عمق الثلج Not available.
الأشعة فوق البنفسجية Not available.
Pollen Not available.
جودة الهواء Not available.
Flu Activity Not available.
METAR HEAX 021800Z 35004KT CAVOK 27/22 Q1010 NOSIG

More Conditions Fewer Conditions

الضغط 29.83 في
وضوح الرؤية -9999.0 أميال
سحابات
مؤشر الحرارة 85 °F
نقطة الندى 72 °F
الرطوبة 74%
Rainfall 0.00 في
عمق الثلج Not available.
الأشعة فوق البنفسجية Not available.
Pollen Not available.
جودة الهواء Not available.
Flu Activity Not available.
METAR HEAX 021800Z 35004KT CAVOK 27/22 Q1010 NOSIG

More Conditions Fewer Conditions

10-Day Weather Forecast

Almanac

علم الفلك

Sep. 02, 2014 Rise Set
Actual Time 5:34 AM EET 6:21 PM EET
Civil Twilight 5:09 AM EET 6:45 PM EET
Nautical Twilight 4:40 AM EET 7:14 PM EET
Astronomical Twilight 4:10 AM EET 7:44 PM EET
قمر 12:33 PM EET 11:23 PM EET
Length Of Visible Light 13h 35m
طول الیوم
12h 46m
Tomorrow will be 1m 50s shorter.
الربع الاول, 54% of the Moon is Illuminated
هذا اليوم
الربع الاول
Sep 8
بدر
Sep 15
الربع الآخر
Sep 24
New
Oct 1
الربع الاول

Today's Extremes

Country Highs Country Lows

Community

WunderPhotos

Upload Photos

1,749,743 photos uploaded!

WunderBlogs® & News

By Dr. Jeff Masters
Director of Meteorology, Weather Underground
By Kari Strenfel
Meteorologist, Weather Underground
By Christopher C. Burt
Weather Historian, Weather Underground
September 2, 2014
September 2, 2014
September 2, 2014

Nearby

جودة الهواء

Not available.

عمق الثلج

Not available.

Earthquake Activity

City Distance Mag. Time & Date
No recent earthquake activity has been reported nearby.
Minimum magnitude displayed is 2.5.

Coastal Water Temperatures

مكان درجات الحرارة
No Stations Reporting

Nearby Weather Stations